createdAt,value
2023-06-11T00:00:24.937Z,2.80
2023-06-11T00:02:51.763Z,2.70
2023-06-11T00:05:18.647Z,3.38
2023-06-11T00:07:45.324Z,3.03
2023-06-11T00:10:11.991Z,3.35
2023-06-11T00:12:38.778Z,2.63
2023-06-11T00:15:08.768Z,3.63
2023-06-11T00:17:35.758Z,3.17
2023-06-11T00:20:02.516Z,2.92
2023-06-11T00:22:29.200Z,2.90
2023-06-11T00:24:55.850Z,2.70
2023-06-11T00:27:22.520Z,2.95
2023-06-11T00:29:49.189Z,2.88
2023-06-11T00:32:15.855Z,3.30
2023-06-11T00:34:42.486Z,2.70
2023-06-11T00:37:09.181Z,3.10
2023-06-11T00:39:35.958Z,2.83
2023-06-11T00:42:02.614Z,2.90
2023-06-11T00:44:29.304Z,2.88
2023-06-11T00:46:57.309Z,3.83
2023-06-11T00:49:24.664Z,3.25
2023-06-11T00:51:51.333Z,3.28
2023-06-11T00:54:18.054Z,3.10
2023-06-11T00:56:44.720Z,3.13
2023-06-11T00:59:12.013Z,3.40
2023-06-11T01:01:43.375Z,3.30
2023-06-11T01:04:13.121Z,2.97
2023-06-11T01:06:39.783Z,2.97
2023-06-11T01:09:06.658Z,3.45
2023-06-11T01:11:33.318Z,4.65
2023-06-11T01:13:59.969Z,3.00
2023-06-11T01:16:44.650Z,2.70
2023-06-11T01:19:34.286Z,4.57
2023-06-11T01:22:09.726Z,3.03
2023-06-11T01:27:22.903Z,3.67
2023-06-11T01:29:49.590Z,3.45
2023-06-11T01:32:18.667Z,3.35
2023-06-11T01:34:45.485Z,2.70
2023-06-11T01:37:12.154Z,4.47
2023-06-11T01:39:39.115Z,4.25
2023-06-11T01:42:06.169Z,3.08
2023-06-11T01:44:32.810Z,3.60
2023-06-11T01:46:59.601Z,3.47
2023-06-11T01:49:26.287Z,3.53
2023-06-11T01:51:52.976Z,3.67
2023-06-11T01:54:19.741Z,3.38
2023-06-11T01:56:46.403Z,4.30
2023-06-11T01:59:13.121Z,4.32
2023-06-11T02:01:39.814Z,3.35
2023-06-11T02:04:06.779Z,3.88
2023-06-11T02:06:33.640Z,4.20
2023-06-11T02:09:00.305Z,3.67
2023-06-11T02:11:26.947Z,4.28
2023-06-11T02:13:53.687Z,4.80
2023-06-11T02:16:20.432Z,3.17
2023-06-11T02:18:47.164Z,3.92
2023-06-11T02:21:13.906Z,3.85
2023-06-11T02:23:40.609Z,4.30
2023-06-11T02:26:07.308Z,4.32
2023-06-11T02:28:33.962Z,4.03
2023-06-11T02:31:00.662Z,3.83
2023-06-11T02:33:27.334Z,4.55
2023-06-11T02:35:54.025Z,4.05
2023-06-11T02:38:20.694Z,3.47
2023-06-11T02:40:47.392Z,3.47
2023-06-11T02:43:14.080Z,5.18
2023-06-11T02:45:40.813Z,3.78
2023-06-11T02:48:07.773Z,4.22
2023-06-11T02:50:34.580Z,4.05
2023-06-11T02:53:01.363Z,3.95
2023-06-11T02:55:28.063Z,3.65
2023-06-11T02:57:54.698Z,3.90
2023-06-11T03:00:21.517Z,3.63
2023-06-11T03:02:48.198Z,3.60
2023-06-11T03:05:15.074Z,5.70
2023-06-11T03:07:42.004Z,3.47
2023-06-11T03:10:08.830Z,4.05
2023-06-11T03:12:35.558Z,4.05
2023-06-11T03:15:02.534Z,4.10
2023-06-11T03:17:29.217Z,5.22
2023-06-11T03:19:55.868Z,4.20
2023-06-11T03:22:22.547Z,5.53
2023-06-11T03:24:49.248Z,3.90
2023-06-11T03:27:15.973Z,4.15
2023-06-11T03:29:42.622Z,4.05
2023-06-11T03:32:12.033Z,4.22
2023-06-11T03:34:39.885Z,4.55
2023-06-11T03:37:06.674Z,5.47
2023-06-11T03:39:33.336Z,6.05
2023-06-11T03:41:59.987Z,3.75
2023-06-11T03:44:26.652Z,4.50
2023-06-11T03:46:53.353Z,3.92
2023-06-11T03:49:20.081Z,4.60
2023-06-11T03:51:46.765Z,3.97
2023-06-11T03:54:13.430Z,3.58
2023-06-11T03:56:40.257Z,4.03
2023-06-11T03:59:06.985Z,3.78
2023-06-11T04:01:33.686Z,4.72
2023-06-11T04:04:00.478Z,5.28
2023-06-11T04:06:27.314Z,4.90
2023-06-11T04:08:54.028Z,4.60
2023-06-11T04:11:20.750Z,3.45
2023-06-11T04:13:47.403Z,5.05
2023-06-11T04:16:14.129Z,3.88
2023-06-11T04:18:40.774Z,5.45
2023-06-11T04:21:07.460Z,5.10
2023-06-11T04:23:34.195Z,4.55
2023-06-11T04:26:01.001Z,4.03
2023-06-11T04:28:27.690Z,4.43
2023-06-11T04:30:54.482Z,5.55
2023-06-11T04:33:21.181Z,4.10
2023-06-11T04:35:47.859Z,4.55
2023-06-11T04:38:14.567Z,5.22
2023-06-11T04:40:41.258Z,4.40
2023-06-11T04:43:07.994Z,3.95
2023-06-11T04:45:34.724Z,4.35
2023-06-11T04:48:01.441Z,5.10
2023-06-11T04:50:28.355Z,3.90
2023-06-11T04:52:55.071Z,4.00
2023-06-11T04:55:22.041Z,5.60
2023-06-11T04:57:48.701Z,4.18
2023-06-11T05:00:15.876Z,6.00
2023-06-11T05:02:44.924Z,5.30
2023-06-11T05:05:12.557Z,4.40
2023-06-11T05:07:39.506Z,4.47
2023-06-11T05:10:06.620Z,5.80
2023-06-11T05:12:33.283Z,5.55
2023-06-11T05:14:59.961Z,4.90
2023-06-11T05:17:26.653Z,4.85
2023-06-11T05:19:53.423Z,4.65
2023-06-11T05:22:20.082Z,4.82
2023-06-11T05:24:46.720Z,4.70
2023-06-11T05:27:13.390Z,4.32
2023-06-11T05:29:40.771Z,4.50
2023-06-11T05:32:08.744Z,5.20
2023-06-11T05:34:35.512Z,4.68
2023-06-11T05:37:02.212Z,4.63
2023-06-11T05:39:28.897Z,4.95
2023-06-11T05:41:55.560Z,4.47
2023-06-11T05:44:22.220Z,4.45
2023-06-11T05:46:49.046Z,5.07
2023-06-11T05:49:15.765Z,4.18
2023-06-11T05:51:42.444Z,4.32
2023-06-11T05:54:09.143Z,4.30
2023-06-11T05:56:35.828Z,4.10
2023-06-11T05:59:02.498Z,4.57
2023-06-11T06:01:29.398Z,3.95
2023-06-11T06:03:56.260Z,4.38
2023-06-11T06:06:23.103Z,5.45
2023-06-11T06:08:49.758Z,4.13
2023-06-11T06:11:16.410Z,4.20
2023-06-11T06:13:44.115Z,4.45
2023-06-11T06:16:10.828Z,5.53
2023-06-11T06:18:37.574Z,4.90
2023-06-11T06:21:04.361Z,4.72
2023-06-11T06:23:31.034Z,3.95
2023-06-11T06:25:57.752Z,4.10
2023-06-11T06:28:24.410Z,5.88
2023-06-11T06:30:51.275Z,4.10
2023-06-11T06:33:18.202Z,4.13
2023-06-11T06:35:44.975Z,4.25
2023-06-11T06:38:11.744Z,4.00
2023-06-11T06:40:38.464Z,4.47
2023-06-11T06:43:05.084Z,3.78
2023-06-11T06:45:31.726Z,4.20
2023-06-11T06:47:58.542Z,4.40
2023-06-11T06:50:25.311Z,4.75
2023-06-11T06:52:51.984Z,4.20
2023-06-11T06:55:18.684Z,5.40
2023-06-11T06:57:45.351Z,3.92
2023-06-11T07:00:12.846Z,6.18
2023-06-11T07:02:39.778Z,3.78
2023-06-11T07:05:06.564Z,4.70
2023-06-11T07:07:33.236Z,3.55
2023-06-11T07:09:59.916Z,3.78
2023-06-11T07:12:26.800Z,2.97
2023-06-11T07:14:53.505Z,3.30
2023-06-11T07:17:20.254Z,2.88
2023-06-11T07:19:46.946Z,3.22
2023-06-11T07:22:13.656Z,3.60
2023-06-11T07:24:40.330Z,3.08
2023-06-11T07:27:07.505Z,3.33
2023-06-11T07:29:34.174Z,2.70
2023-06-11T07:32:00.830Z,4.07
2023-06-11T07:34:27.528Z,3.33
2023-06-11T07:36:54.175Z,3.40
2023-06-11T07:39:20.952Z,2.75
2023-06-11T07:41:47.665Z,2.90
2023-06-11T07:44:14.311Z,2.97
2023-06-11T07:46:41.062Z,2.80
2023-06-11T07:49:07.788Z,2.80
2023-06-11T07:51:34.462Z,2.97
2023-06-11T07:54:01.184Z,2.53
2023-06-11T07:56:27.938Z,3.78
2023-06-11T07:58:54.903Z,2.72
2023-06-11T08:01:24.744Z,2.92
2023-06-11T08:03:51.380Z,2.50
2023-06-11T08:06:18.246Z,3.00
2023-06-11T08:08:44.876Z,3.05
2023-06-11T08:11:11.559Z,3.00
2023-06-11T08:13:38.215Z,3.20
2023-06-11T08:16:05.257Z,3.03
2023-06-11T08:18:31.894Z,2.83
2023-06-11T08:20:58.616Z,3.90
2023-06-11T08:23:25.564Z,5.00
2023-06-11T08:25:52.221Z,3.25
2023-06-11T08:28:19.292Z,3.33
2023-06-11T08:30:45.946Z,3.60
2023-06-11T08:33:13.029Z,3.38
2023-06-11T08:35:39.742Z,2.90
2023-06-11T08:38:06.433Z,3.25
2023-06-11T08:40:33.073Z,3.28
2023-06-11T08:42:59.709Z,2.80
2023-06-11T08:45:26.354Z,2.83
2023-06-11T08:47:53.104Z,2.88
2023-06-11T08:50:23.261Z,2.92
2023-06-11T08:52:53.177Z,2.50
2023-06-11T08:55:19.808Z,3.08
2023-06-11T08:57:46.467Z,2.83
2023-06-11T09:00:13.928Z,2.63
2023-06-11T09:02:40.864Z,3.22
2023-06-11T09:05:08.196Z,2.72
2023-06-11T09:07:37.318Z,2.58
2023-06-11T09:10:08.451Z,2.45
2023-06-11T09:12:35.355Z,2.35
2023-06-11T09:15:02.120Z,2.92
2023-06-11T09:17:46.954Z,2.30
2023-06-11T09:20:15.551Z,2.13
2023-06-11T09:25:10.701Z,2.63
2023-06-11T09:27:38.207Z,2.35
2023-06-11T09:30:18.615Z,2.20
2023-06-11T09:32:47.585Z,2.05
2023-06-11T09:35:16.221Z,2.60
2023-06-11T09:37:46.572Z,3.60
2023-06-11T09:40:15.844Z,2.88
2023-06-11T09:42:44.573Z,2.20
2023-06-11T09:47:40.793Z,2.85
2023-06-11T09:50:08.145Z,2.92
2023-06-11T09:52:35.900Z,3.15
2023-06-11T09:55:02.592Z,2.10
2023-06-11T09:57:29.254Z,2.28
2023-06-11T09:59:55.944Z,2.85
2023-06-11T10:02:27.072Z,3.42
2023-06-11T10:04:56.013Z,1.88
2023-06-11T10:07:23.137Z,4.07
2023-06-11T10:09:51.295Z,2.13
2023-06-11T10:12:17.983Z,1.98
2023-06-11T10:14:51.528Z,2.28
2023-06-11T10:17:18.240Z,2.30
2023-06-11T10:19:49.069Z,2.03
2023-06-11T10:22:45.321Z,2.90
2023-06-11T10:25:17.743Z,1.70
2023-06-11T10:27:44.452Z,2.00
2023-06-11T10:30:11.712Z,1.73
2023-06-11T10:32:48.427Z,2.00
2023-06-11T10:35:24.118Z,2.15
2023-06-11T10:38:05.405Z,2.22
2023-06-11T10:40:38.490Z,1.70
2023-06-11T10:43:29.737Z,2.10
2023-06-11T10:46:06.384Z,1.83
2023-06-11T10:48:33.128Z,2.33
2023-06-11T10:51:13.988Z,2.35
2023-06-11T10:53:41.836Z,2.05
2023-06-11T10:56:23.577Z,3.08
2023-06-11T10:58:50.828Z,1.90
2023-06-11T11:01:23.672Z,1.42
2023-06-11T11:03:50.993Z,2.20
2023-06-11T11:06:27.356Z,1.80
2023-06-11T11:08:54.864Z,1.63
2023-06-11T11:11:21.607Z,1.55
2023-06-11T11:13:50.730Z,1.70
2023-06-11T11:16:20.842Z,1.80
2023-06-11T11:18:50.922Z,1.85
2023-06-11T11:21:18.678Z,1.65
2023-06-11T11:23:49.174Z,2.15
2023-06-11T11:26:17.657Z,2.20
2023-06-11T11:28:44.404Z,1.80
2023-06-11T11:31:11.191Z,2.17
2023-06-11T11:33:37.880Z,1.90
2023-06-11T11:36:04.868Z,2.22
2023-06-11T11:38:35.998Z,2.03
2023-06-11T11:41:05.432Z,2.60
2023-06-11T11:43:41.827Z,2.90
2023-06-11T11:46:18.373Z,2.33
2023-06-11T11:48:48.346Z,1.58
2023-06-11T11:51:15.101Z,1.60
2023-06-11T11:53:42.052Z,2.28
2023-06-11T11:56:08.889Z,1.70
2023-06-11T11:58:36.476Z,1.80
2023-06-11T12:01:03.138Z,1.58
2023-06-11T12:03:30.050Z,1.83
2023-06-11T12:06:06.781Z,1.60
2023-06-11T12:08:34.340Z,1.60
2023-06-11T12:11:01.641Z,1.48
2023-06-11T12:13:28.315Z,1.88
2023-06-11T12:15:55.046Z,1.73
2023-06-11T12:18:21.836Z,1.80
2023-06-11T12:20:48.563Z,1.70
2023-06-11T12:23:15.270Z,2.60
2023-06-11T12:25:41.995Z,1.83
2023-06-11T12:28:08.651Z,1.77
2023-06-11T12:30:35.348Z,1.75
2023-06-11T12:33:02.153Z,1.30
2023-06-11T12:35:29.723Z,2.20
2023-06-11T12:37:56.380Z,1.92
2023-06-11T12:40:27.144Z,2.03
2023-06-11T12:42:56.299Z,1.60
2023-06-11T12:45:29.373Z,1.83
2023-06-11T12:47:58.841Z,1.88
2023-06-11T12:50:27.254Z,1.77
2023-06-11T12:52:58.443Z,2.40
2023-06-11T12:55:26.190Z,1.50
2023-06-11T12:57:52.916Z,1.60
2023-06-11T13:00:19.884Z,1.63
2023-06-11T13:02:46.568Z,2.05
2023-06-11T13:05:17.428Z,1.90
2023-06-11T13:07:51.240Z,2.03
2023-06-11T13:10:17.938Z,1.85
2023-06-11T13:12:47.263Z,1.33
2023-06-11T13:15:14.083Z,1.60
2023-06-11T13:17:43.460Z,1.98
2023-06-11T13:20:13.842Z,1.98
2023-06-11T13:22:41.265Z,2.30
2023-06-11T13:25:10.305Z,2.63
2023-06-11T13:27:37.132Z,1.75
2023-06-11T13:30:08.750Z,1.73
2023-06-11T13:32:41.708Z,1.90
2023-06-11T13:35:08.782Z,2.00
2023-06-11T13:37:35.537Z,2.15
2023-06-11T13:40:02.339Z,1.30
2023-06-11T13:42:29.096Z,1.75
2023-06-11T13:44:55.877Z,2.85
2023-06-11T13:47:22.706Z,1.50
2023-06-11T13:49:49.472Z,1.45
2023-06-11T13:52:16.183Z,1.48
2023-06-11T13:54:42.844Z,2.83
2023-06-11T13:57:09.520Z,1.30
2023-06-11T13:59:36.238Z,1.70
2023-06-11T14:02:03.000Z,2.33
2023-06-11T14:04:29.790Z,2.30
2023-06-11T14:06:56.472Z,1.85
2023-06-11T14:09:23.175Z,1.52
2023-06-11T14:11:49.814Z,1.50
2023-06-11T14:14:16.476Z,1.83
2023-06-11T14:16:43.190Z,3.03
2023-06-11T14:19:09.918Z,1.50
2023-06-11T14:21:36.849Z,1.60
2023-06-11T14:24:04.177Z,1.25
2023-06-11T14:26:31.028Z,1.50
2023-06-11T14:28:57.758Z,1.55
2023-06-11T14:31:24.445Z,1.75
2023-06-11T14:33:51.222Z,1.98
2023-06-11T14:36:17.890Z,1.80
2023-06-11T14:38:44.627Z,1.27
2023-06-11T14:41:11.306Z,1.77
2023-06-11T14:43:37.988Z,1.13
2023-06-11T14:46:04.669Z,1.90
2023-06-11T14:48:31.325Z,1.92
2023-06-11T14:50:58.036Z,1.70
2023-06-11T14:53:24.708Z,1.50
2023-06-11T14:55:51.364Z,1.77
2023-06-11T14:58:18.047Z,1.10
2023-06-11T15:00:44.773Z,1.50
2023-06-11T15:03:13.120Z,1.30
2023-06-11T15:05:41.167Z,1.52
2023-06-11T15:08:07.868Z,1.83
2023-06-11T15:10:34.525Z,1.40
2023-06-11T15:13:01.167Z,1.58
2023-06-11T15:15:27.835Z,1.95
2023-06-11T15:17:54.516Z,1.45
2023-06-11T15:20:21.236Z,1.73
2023-06-11T15:22:47.925Z,2.00
2023-06-11T15:25:14.576Z,2.20
2023-06-11T15:27:41.253Z,1.90
2023-06-11T15:30:08.348Z,1.45
2023-06-11T15:32:35.141Z,1.33
2023-06-11T15:35:02.414Z,1.45
2023-06-11T15:37:29.089Z,1.50
2023-06-11T15:39:55.785Z,1.85
2023-06-11T15:42:22.456Z,1.45
2023-06-11T15:44:49.187Z,1.65
2023-06-11T15:47:15.955Z,1.65
2023-06-11T15:49:42.674Z,1.80
2023-06-11T15:52:09.382Z,1.40
2023-06-11T15:54:36.097Z,1.45
2023-06-11T15:57:02.869Z,1.50
2023-06-11T15:59:29.529Z,2.00
2023-06-11T16:01:56.339Z,1.60
2023-06-11T16:04:23.316Z,1.80
2023-06-11T16:06:50.462Z,1.20
2023-06-11T16:09:17.111Z,2.03
2023-06-11T16:11:43.762Z,1.90
2023-06-11T16:14:10.413Z,1.45
2023-06-11T16:16:37.192Z,1.02
2023-06-11T16:19:04.024Z,1.63
2023-06-11T16:21:30.742Z,1.60
2023-06-11T16:23:57.482Z,1.88
2023-06-11T16:26:24.271Z,2.00
2023-06-11T16:28:50.966Z,1.88
2023-06-11T16:31:17.770Z,1.40
2023-06-11T16:33:57.500Z,1.77
2023-06-11T16:36:26.364Z,1.45
2023-06-11T16:38:53.039Z,1.30
2023-06-11T16:41:19.882Z,1.80
2023-06-11T16:43:46.596Z,1.98
2023-06-11T16:46:13.321Z,1.70
2023-06-11T16:48:53.106Z,1.45
2023-06-11T16:51:19.997Z,1.55
2023-06-11T16:53:46.723Z,2.05
2023-06-11T16:56:13.489Z,1.50
2023-06-11T16:58:40.189Z,2.10
2023-06-11T17:01:06.984Z,2.20
2023-06-11T17:03:34.652Z,1.55
2023-06-11T17:06:01.915Z,1.35
2023-06-11T17:08:28.656Z,1.40
2023-06-11T17:10:55.377Z,1.35
2023-06-11T17:13:22.053Z,1.90
2023-06-11T17:15:48.724Z,1.20
2023-06-11T17:18:15.580Z,1.85
2023-06-11T17:20:44.356Z,1.45
2023-06-11T17:23:12.445Z,1.95
2023-06-11T17:25:39.251Z,1.50
2023-06-11T17:28:05.919Z,1.83
2023-06-11T17:30:32.587Z,1.55
2023-06-11T17:32:59.519Z,2.10
2023-06-11T17:35:26.398Z,1.90
2023-06-11T17:37:53.053Z,1.40
2023-06-11T17:40:20.049Z,1.58
2023-06-11T17:42:46.930Z,3.00
2023-06-11T17:45:13.710Z,1.33
2023-06-11T17:47:40.479Z,1.92
2023-06-11T17:50:07.703Z,2.13
2023-06-11T17:52:34.375Z,2.60
2023-06-11T17:55:01.057Z,1.88
2023-06-11T17:57:27.702Z,1.73
2023-06-11T17:59:54.354Z,2.60
2023-06-11T18:02:21.153Z,1.75
2023-06-11T18:04:47.950Z,1.38
2023-06-11T18:07:14.612Z,1.67
2023-06-11T18:09:41.323Z,1.85
2023-06-11T18:12:08.577Z,1.83
2023-06-11T18:14:35.302Z,1.70
2023-06-11T18:17:02.009Z,2.20
2023-06-11T18:19:28.709Z,1.80
2023-06-11T18:21:55.415Z,1.25
2023-06-11T18:24:22.201Z,1.80
2023-06-11T18:26:48.963Z,1.73
2023-06-11T18:29:15.702Z,1.58
2023-06-11T18:31:42.401Z,1.45
2023-06-11T18:34:09.037Z,2.17
2023-06-11T18:36:35.727Z,1.50
2023-06-11T18:39:02.463Z,2.38
2023-06-11T18:41:30.821Z,1.40
2023-06-11T18:43:57.884Z,1.58
2023-06-11T18:46:24.696Z,1.33
2023-06-11T18:48:51.543Z,2.08
2023-06-11T18:51:18.248Z,1.70
2023-06-11T18:53:44.919Z,1.40
2023-06-11T18:56:11.588Z,1.98
2023-06-11T18:58:38.359Z,1.23
2023-06-11T19:01:05.214Z,2.00
2023-06-11T19:03:32.615Z,1.95
2023-06-11T19:06:00.743Z,1.70
2023-06-11T19:08:27.440Z,3.42
2023-06-11T19:10:54.138Z,1.90
2023-06-11T19:13:20.871Z,2.10
2023-06-11T19:15:47.690Z,2.00
2023-06-11T19:18:14.475Z,1.60
2023-06-11T19:20:41.635Z,1.45
2023-06-11T19:23:08.639Z,2.83
2023-06-11T19:25:35.382Z,1.60
2023-06-11T19:28:02.258Z,1.90
2023-06-11T19:30:28.925Z,1.95
2023-06-11T19:32:55.609Z,1.90
2023-06-11T19:35:22.553Z,1.42
2023-06-11T19:37:49.299Z,1.92
2023-06-11T19:40:16.050Z,2.33
2023-06-11T19:42:42.905Z,2.17
2023-06-11T19:45:09.787Z,2.38
2023-06-11T19:47:39.335Z,2.40
2023-06-11T19:50:06.735Z,1.70
2023-06-11T19:52:33.408Z,1.52
2023-06-11T19:55:00.207Z,3.33
2023-06-11T19:57:27.014Z,2.20
2023-06-11T19:59:53.832Z,1.58
2023-06-11T20:02:20.655Z,1.73
2023-06-11T20:04:47.716Z,1.83
2023-06-11T20:07:17.480Z,2.50
2023-06-11T20:09:44.177Z,1.58
2023-06-11T20:12:10.990Z,2.30
2023-06-11T20:14:37.790Z,2.55
2023-06-11T20:17:05.310Z,1.95
2023-06-11T20:19:32.031Z,2.10
2023-06-11T20:21:58.741Z,1.98
2023-06-11T20:24:25.614Z,2.13
2023-06-11T20:26:53.035Z,2.05
2023-06-11T20:29:19.882Z,2.15
2023-06-11T20:31:46.699Z,3.35
2023-06-11T20:34:13.434Z,2.85
2023-06-11T20:36:40.112Z,2.33
2023-06-11T20:39:06.760Z,2.30
2023-06-11T20:41:34.009Z,2.20
2023-06-11T20:44:00.714Z,2.22
2023-06-11T20:46:29.499Z,3.05
2023-06-11T20:51:23.320Z,2.47
2023-06-11T20:53:49.995Z,1.90
2023-06-11T20:56:16.826Z,2.63
2023-06-11T20:58:43.523Z,2.53
2023-06-11T21:01:10.266Z,2.38
2023-06-11T21:03:37.011Z,2.03
2023-06-11T21:06:03.713Z,2.22
2023-06-11T21:08:30.446Z,2.50
2023-06-11T21:10:57.111Z,2.10
2023-06-11T21:13:23.792Z,2.97
2023-06-11T21:15:50.577Z,2.75
2023-06-11T21:18:17.445Z,3.80
2023-06-11T21:20:44.237Z,1.92
2023-06-11T21:23:10.958Z,3.03
2023-06-11T21:25:37.614Z,2.90
2023-06-11T21:28:04.403Z,2.60
2023-06-11T21:30:31.076Z,2.05
2023-06-11T21:33:03.906Z,2.08
2023-06-11T21:35:40.875Z,3.15
2023-06-11T21:38:07.605Z,3.42
2023-06-11T21:40:34.274Z,1.95
2023-06-11T21:43:00.910Z,2.22
2023-06-11T21:45:29.796Z,2.40
2023-06-11T21:47:56.887Z,2.45
2023-06-11T21:50:23.613Z,2.00
2023-06-11T21:52:50.255Z,2.20
2023-06-11T21:55:16.973Z,3.15
2023-06-11T21:57:43.637Z,2.38
2023-06-11T22:00:13.841Z,2.50
2023-06-11T22:02:44.031Z,2.40
2023-06-11T22:05:10.936Z,3.60
2023-06-11T22:07:37.763Z,2.35
2023-06-11T22:10:04.860Z,2.42
2023-06-11T22:12:31.579Z,2.83
2023-06-11T22:14:58.273Z,2.60
2023-06-11T22:17:25.037Z,3.40
2023-06-11T22:19:51.724Z,2.92
2023-06-11T22:22:18.460Z,2.58
2023-06-11T22:24:45.280Z,2.80
2023-06-11T22:27:12.190Z,2.70
2023-06-11T22:29:39.008Z,2.90
2023-06-11T22:32:06.142Z,2.85
2023-06-11T22:34:32.852Z,3.00
2023-06-11T22:36:59.569Z,4.00
2023-06-11T22:39:26.293Z,3.10
2023-06-11T22:41:53.060Z,2.50
2023-06-11T22:44:19.971Z,3.58
2023-06-11T22:46:46.715Z,3.33
2023-06-11T22:49:13.466Z,2.50
2023-06-11T22:51:40.327Z,3.88
2023-06-11T22:54:07.075Z,4.03
2023-06-11T22:56:33.892Z,3.10
2023-06-11T22:59:00.532Z,3.55
2023-06-11T23:01:27.224Z,3.10
2023-06-11T23:03:54.300Z,2.88
2023-06-11T23:06:21.104Z,2.83
2023-06-11T23:08:47.833Z,3.30
2023-06-11T23:11:14.569Z,3.10
2023-06-11T23:13:41.388Z,2.95
2023-06-11T23:16:08.168Z,2.92
2023-06-11T23:18:34.906Z,4.18
2023-06-11T23:21:04.236Z,3.10
2023-06-11T23:23:31.383Z,3.45
2023-06-11T23:25:58.069Z,2.75
2023-06-11T23:28:24.761Z,3.22
2023-06-11T23:30:52.184Z,3.17
2023-06-11T23:33:19.126Z,2.78
2023-06-11T23:35:45.817Z,3.38
2023-06-11T23:38:15.297Z,4.35
2023-06-11T23:40:42.011Z,2.83
2023-06-11T23:43:08.703Z,2.92
2023-06-11T23:45:37.458Z,3.50
2023-06-11T23:48:04.240Z,2.95
